createdAt,value
2019-03-03T00:01:49.909Z,99.90
2019-03-03T00:04:21.021Z,99.90
2019-03-03T00:06:52.243Z,99.90
2019-03-03T00:09:23.307Z,99.90
2019-03-03T00:11:54.381Z,99.90
2019-03-03T00:14:25.464Z,99.90
2019-03-03T00:16:57.580Z,99.90
2019-03-03T00:19:28.538Z,99.90
2019-03-03T00:21:59.595Z,99.90
2019-03-03T00:24:31.622Z,99.90
2019-03-03T00:27:02.684Z,99.90
2019-03-03T00:29:33.708Z,99.90
2019-03-03T00:32:04.767Z,99.90
2019-03-03T00:34:35.796Z,99.90
2019-03-03T00:37:14.360Z,99.90
2019-03-03T00:39:46.954Z,99.90
2019-03-03T00:42:22.530Z,99.90
2019-03-03T00:45:13.330Z,99.90
2019-03-03T00:48:02.122Z,99.90
2019-03-03T00:50:41.941Z,99.90
2019-03-03T00:53:17.276Z,99.90
2019-03-03T00:55:49.882Z,99.90
2019-03-03T00:58:22.519Z,99.90
2019-03-03T01:00:55.117Z,99.90
2019-03-03T01:03:27.754Z,99.90
2019-03-03T01:06:03.335Z,99.90
2019-03-03T01:08:34.087Z,99.90
2019-03-03T01:11:14.048Z,99.90
2019-03-03T01:14:00.870Z,99.90
2019-03-03T01:16:47.050Z,99.90
2019-03-03T01:19:34.546Z,99.90
2019-03-03T01:22:07.243Z,99.90
2019-03-03T01:24:49.883Z,99.90
2019-03-03T01:27:20.939Z,99.90
2019-03-03T01:29:51.996Z,99.90
2019-03-03T01:32:23.025Z,99.90
2019-03-03T01:34:54.077Z,99.90
2019-03-03T01:37:25.112Z,99.90
2019-03-03T01:39:56.162Z,99.90
2019-03-03T01:42:27.184Z,99.90
2019-03-03T01:44:58.271Z,99.90
2019-03-03T01:47:29.386Z,99.90
2019-03-03T01:50:00.406Z,99.90
2019-03-03T01:52:31.462Z,99.90
2019-03-03T01:55:02.499Z,99.90
2019-03-03T01:57:33.544Z,99.90
2019-03-03T02:00:07.595Z,99.90
2019-03-03T02:02:38.656Z,99.90
2019-03-03T02:05:09.675Z,99.90
2019-03-03T02:07:41.772Z,99.90
2019-03-03T02:10:12.794Z,99.90
2019-03-03T02:12:43.851Z,99.90
2019-03-03T02:15:15.171Z,99.90
2019-03-03T02:17:46.235Z,99.90
2019-03-03T02:20:17.424Z,99.90
2019-03-03T02:22:48.484Z,99.90
2019-03-03T02:25:19.509Z,99.90
2019-03-03T02:27:50.662Z,99.90
2019-03-03T02:30:22.821Z,99.90
2019-03-03T02:32:53.847Z,99.90
2019-03-03T02:35:24.907Z,99.90
2019-03-03T02:37:55.928Z,99.90
2019-03-03T02:40:26.991Z,99.90
2019-03-03T02:42:58.007Z,99.90
2019-03-03T02:45:30.064Z,99.90
2019-03-03T02:48:01.091Z,99.90
2019-03-03T02:50:32.147Z,99.90
2019-03-03T02:53:03.166Z,99.90
2019-03-03T02:55:34.225Z,99.90
2019-03-03T02:58:05.249Z,99.90
2019-03-03T03:00:38.876Z,99.90
2019-03-03T03:03:11.474Z,99.90
2019-03-03T03:05:50.177Z,99.90
2019-03-03T03:08:25.735Z,99.90
2019-03-03T03:11:07.368Z,99.90
2019-03-03T03:13:38.086Z,99.90
2019-03-03T03:16:19.720Z,99.90
2019-03-03T03:18:55.254Z,99.90
2019-03-03T03:21:30.849Z,99.90
2019-03-03T03:24:03.443Z,99.90
2019-03-03T03:26:51.182Z,99.90
2019-03-03T03:29:26.824Z,99.90
2019-03-03T03:32:03.362Z,99.90
2019-03-03T03:34:45.830Z,99.90
2019-03-03T03:37:21.181Z,99.90
2019-03-03T03:39:53.787Z,99.90
2019-03-03T03:42:38.477Z,99.90
2019-03-03T03:45:21.948Z,99.90
2019-03-03T03:48:10.453Z,99.90
2019-03-03T03:50:43.045Z,99.90
2019-03-03T03:53:18.594Z,99.90
2019-03-03T03:56:09.055Z,99.90
2019-03-03T03:58:39.915Z,99.90
2019-03-03T04:01:30.663Z,99.90
2019-03-03T04:04:03.286Z,99.90
2019-03-03T04:06:35.878Z,99.90
2019-03-03T04:09:11.667Z,99.90
2019-03-03T04:11:47.208Z,99.90
2019-03-03T04:14:25.760Z,99.90
2019-03-03T04:17:01.065Z,99.90
2019-03-03T04:19:36.658Z,99.90
2019-03-03T04:22:18.074Z,99.90
2019-03-03T04:24:59.767Z,99.90
2019-03-03T04:27:32.361Z,99.90
2019-03-03T04:30:04.990Z,99.90
2019-03-03T04:32:49.702Z,99.90
2019-03-03T04:35:28.333Z,99.90
2019-03-03T04:38:16.798Z,99.90
2019-03-03T04:40:55.166Z,99.90
2019-03-03T04:43:27.757Z,99.90
2019-03-03T04:46:00.379Z,99.90
2019-03-03T04:48:43.213Z,99.90
2019-03-03T04:51:27.868Z,99.90
2019-03-03T04:54:03.459Z,99.90
2019-03-03T04:56:45.194Z,99.90
2019-03-03T04:59:29.521Z,99.90
2019-03-03T05:02:02.144Z,99.90
2019-03-03T05:04:34.738Z,99.90
2019-03-03T05:07:10.338Z,99.90
2019-03-03T05:09:55.924Z,99.90
2019-03-03T05:12:31.568Z,99.90
2019-03-03T05:15:04.162Z,99.90
2019-03-03T05:17:51.897Z,99.90
2019-03-03T05:20:22.929Z,99.90
2019-03-03T05:22:53.920Z,99.90
2019-03-03T05:25:24.948Z,99.90
2019-03-03T05:27:55.997Z,99.90
2019-03-03T05:30:27.023Z,99.90
2019-03-03T05:32:58.084Z,99.90
2019-03-03T05:35:29.128Z,99.90
2019-03-03T05:38:00.155Z,99.90
2019-03-03T05:40:31.210Z,99.90
2019-03-03T05:43:02.234Z,99.90
2019-03-03T05:45:33.291Z,99.90
2019-03-03T05:48:04.309Z,99.90
2019-03-03T05:50:35.366Z,99.90
2019-03-03T05:53:06.474Z,99.90
2019-03-03T05:55:37.536Z,99.90
2019-03-03T05:58:08.563Z,99.90
2019-03-03T06:00:39.696Z,99.90
2019-03-03T06:03:11.720Z,99.90
2019-03-03T06:05:42.769Z,99.90
2019-03-03T06:08:13.795Z,99.90
2019-03-03T06:10:44.851Z,99.90
2019-03-03T06:13:15.875Z,99.90
2019-03-03T06:15:46.932Z,99.90
2019-03-03T06:18:17.954Z,99.90
2019-03-03T06:20:49.006Z,99.90
2019-03-03T06:23:20.038Z,99.90
2019-03-03T06:25:51.085Z,99.90
2019-03-03T06:28:22.136Z,99.90
2019-03-03T06:30:53.161Z,99.90
2019-03-03T06:33:24.213Z,99.90
2019-03-03T06:35:55.241Z,99.90
2019-03-03T06:38:26.294Z,99.90
2019-03-03T06:40:57.317Z,99.90
2019-03-03T06:43:28.368Z,99.90
2019-03-03T06:46:00.388Z,99.90
2019-03-03T06:48:31.446Z,99.90
2019-03-03T06:51:02.470Z,99.90
2019-03-03T06:53:33.523Z,99.90
2019-03-03T06:56:04.551Z,99.90
2019-03-03T06:58:35.605Z,99.90
2019-03-03T07:01:06.672Z,99.90
2019-03-03T07:03:37.729Z,99.90
2019-03-03T07:06:08.761Z,99.90
2019-03-03T07:08:39.813Z,99.90
2019-03-03T07:11:10.847Z,99.90
2019-03-03T07:13:41.921Z,99.90
2019-03-03T07:16:13.006Z,99.90
2019-03-03T07:18:44.062Z,99.90
2019-03-03T07:21:15.117Z,99.90
2019-03-03T07:23:46.173Z,99.90
2019-03-03T07:26:17.163Z,99.90
2019-03-03T07:28:48.485Z,99.90
2019-03-03T07:31:19.539Z,99.90
2019-03-03T07:33:51.662Z,99.90
2019-03-03T07:36:22.722Z,99.90
2019-03-03T07:38:53.742Z,99.90
2019-03-03T07:41:24.792Z,99.90
2019-03-03T07:43:56.152Z,99.90
2019-03-03T07:46:27.266Z,99.90
2019-03-03T07:48:58.286Z,99.90
2019-03-03T07:51:29.343Z,99.90
2019-03-03T07:54:00.368Z,99.90
2019-03-03T07:56:31.419Z,99.90
2019-03-03T07:59:02.438Z,99.90
2019-03-03T08:01:33.502Z,99.90
2019-03-03T08:04:04.527Z,99.90
2019-03-03T08:06:35.583Z,99.90
2019-03-03T08:09:08.331Z,99.90
2019-03-03T08:11:39.497Z,99.90
2019-03-03T08:14:10.551Z,99.90
2019-03-03T08:16:41.618Z,99.90
2019-03-03T08:19:12.675Z,99.90
2019-03-03T08:21:43.692Z,99.90
2019-03-03T08:24:14.742Z,99.90
2019-03-03T08:26:45.767Z,99.90
2019-03-03T08:29:16.824Z,99.90
2019-03-03T08:31:47.849Z,99.90
2019-03-03T08:34:18.895Z,99.90
2019-03-03T08:36:50.019Z,99.90
2019-03-03T08:39:21.205Z,99.90
2019-03-03T08:41:53.862Z,99.90
2019-03-03T08:44:26.491Z,99.90
2019-03-03T08:47:02.042Z,99.90
2019-03-03T08:49:35.661Z,99.90
2019-03-03T08:52:10.976Z,99.90
2019-03-03T08:54:46.575Z,99.90
2019-03-03T08:57:31.855Z,99.90
2019-03-03T09:00:20.276Z,99.90
2019-03-03T09:02:55.548Z,99.90
2019-03-03T09:05:30.836Z,99.90
2019-03-03T09:08:12.385Z,99.90
2019-03-03T09:10:45.026Z,99.90
2019-03-03T09:13:20.619Z,99.90
2019-03-03T09:16:09.308Z,99.90
2019-03-03T09:18:57.048Z,99.90
2019-03-03T09:21:30.847Z,99.90
2019-03-03T09:24:19.382Z,99.90
2019-03-03T09:26:58.033Z,99.90
2019-03-03T09:29:30.678Z,99.90
2019-03-03T09:32:12.353Z,99.90
2019-03-03T09:34:45.012Z,99.90
2019-03-03T09:37:17.671Z,99.90
2019-03-03T09:39:53.257Z,99.90
2019-03-03T09:42:28.820Z,99.90
2019-03-03T09:45:04.178Z,99.90
2019-03-03T09:47:37.673Z,99.90
2019-03-03T09:50:15.799Z,99.90
2019-03-03T09:52:55.542Z,99.90
2019-03-03T09:55:26.311Z,99.90
2019-03-03T09:58:04.960Z,99.90
2019-03-03T10:00:35.791Z,99.90
2019-03-03T10:03:08.425Z,99.90
2019-03-03T10:05:45.249Z,99.90
2019-03-03T10:08:23.638Z,99.90
2019-03-03T10:11:02.130Z,99.90
2019-03-03T10:13:34.737Z,99.90
2019-03-03T10:16:10.085Z,99.90
2019-03-03T10:18:51.503Z,99.90
2019-03-03T10:21:23.269Z,99.90
2019-03-03T10:23:58.640Z,99.90
2019-03-03T10:26:37.359Z,99.90
2019-03-03T10:29:08.167Z,99.90
2019-03-03T10:31:50.096Z,99.90
2019-03-03T10:34:28.523Z,98.30
2019-03-03T10:37:01.156Z,95.20
2019-03-03T10:39:37.565Z,88.30
2019-03-03T10:42:19.338Z,86.50
2019-03-03T10:44:50.076Z,78.60
2019-03-03T10:47:38.995Z,79.40
2019-03-03T10:50:13.381Z,74.30
2019-03-03T10:52:54.847Z,74.60
2019-03-03T10:55:30.592Z,71.90
2019-03-03T10:58:09.028Z,72.10
2019-03-03T11:00:44.515Z,68.40
2019-03-03T11:03:32.954Z,63.90
2019-03-03T11:06:23.427Z,65.90
2019-03-03T11:09:08.222Z,62.90
2019-03-03T11:11:44.811Z,59.70
2019-03-03T11:14:33.567Z,58.30
2019-03-03T11:17:15.163Z,59.30
2019-03-03T11:20:02.896Z,60.80
2019-03-03T11:22:52.087Z,59.70
2019-03-03T11:25:33.863Z,58.60
2019-03-03T11:28:23.551Z,54.30
2019-03-03T11:30:52.502Z,52.30
2019-03-03T11:33:33.964Z,53.10
2019-03-03T11:36:10.586Z,52.20
2019-03-03T11:38:46.268Z,53.10
2019-03-03T11:41:21.975Z,53.70
2019-03-03T11:43:54.589Z,55.20
2019-03-03T11:46:25.341Z,52.90
2019-03-03T11:49:01.769Z,50.80
2019-03-03T11:51:35.213Z,51.90
2019-03-03T11:54:10.768Z,54.60
2019-03-03T11:56:43.397Z,56.80
2019-03-03T11:59:16.004Z,57.00
2019-03-03T12:02:00.502Z,55.80
2019-03-03T12:04:46.042Z,55.00
2019-03-03T12:07:33.559Z,54.90
2019-03-03T12:10:23.914Z,56.30
2019-03-03T12:12:54.678Z,57.80
2019-03-03T12:15:27.280Z,57.00
2019-03-03T12:18:15.991Z,56.20
2019-03-03T12:21:04.652Z,56.10
2019-03-03T12:23:40.010Z,57.80
2019-03-03T12:26:12.612Z,57.20
2019-03-03T12:29:01.088Z,57.90
2019-03-03T12:31:33.694Z,56.80
2019-03-03T12:34:22.119Z,58.50
2019-03-03T12:37:12.588Z,58.20
2019-03-03T12:40:03.353Z,59.80
2019-03-03T12:42:50.968Z,58.70
2019-03-03T12:45:24.108Z,56.70
2019-03-03T12:48:03.990Z,56.60
2019-03-03T12:50:42.677Z,57.00
2019-03-03T12:53:33.166Z,58.70
2019-03-03T12:56:17.518Z,58.50
2019-03-03T12:58:51.253Z,57.20
2019-03-03T13:01:39.659Z,57.50
2019-03-03T13:04:13.141Z,56.60
2019-03-03T13:06:48.698Z,54.30
2019-03-03T13:09:37.530Z,54.50
2019-03-03T13:12:08.280Z,56.90
2019-03-03T13:14:43.880Z,54.70
2019-03-03T13:17:16.455Z,54.60
2019-03-03T13:19:49.089Z,55.70
2019-03-03T13:22:24.774Z,54.00
2019-03-03T13:25:13.383Z,54.10
2019-03-03T13:27:56.252Z,55.10
2019-03-03T13:30:37.597Z,55.40
2019-03-03T13:33:10.202Z,59.10
2019-03-03T13:35:46.941Z,60.00
2019-03-03T13:38:25.242Z,58.10
2019-03-03T13:41:12.689Z,58.10
2019-03-03T13:43:43.729Z,57.80
2019-03-03T13:46:14.759Z,55.00
2019-03-03T13:48:45.810Z,55.40
2019-03-03T13:51:16.856Z,55.10
2019-03-03T13:53:47.891Z,55.10
2019-03-03T13:56:18.924Z,55.10
2019-03-03T13:58:49.984Z,56.20
2019-03-03T14:01:21.286Z,56.30
2019-03-03T14:03:52.325Z,55.60
2019-03-03T14:06:23.360Z,54.90
2019-03-03T14:08:54.426Z,55.90
2019-03-03T14:11:30.725Z,58.10
2019-03-03T14:14:01.796Z,57.20
2019-03-03T14:16:32.827Z,57.90
2019-03-03T14:19:03.909Z,58.30
2019-03-03T14:21:35.024Z,58.50
2019-03-03T14:24:06.205Z,59.30
2019-03-03T14:26:37.304Z,57.60
2019-03-03T14:29:08.366Z,58.40
2019-03-03T14:31:39.404Z,59.30
2019-03-03T14:34:10.504Z,60.50
2019-03-03T14:36:41.607Z,60.40
2019-03-03T14:39:12.851Z,60.60
2019-03-03T14:41:43.916Z,60.10
2019-03-03T14:44:15.943Z,61.30
2019-03-03T14:46:47.001Z,62.30
2019-03-03T14:49:18.039Z,62.20
2019-03-03T14:51:49.101Z,62.90
2019-03-03T14:54:20.200Z,63.60
2019-03-03T14:56:51.276Z,63.40
2019-03-03T14:59:22.320Z,62.20
2019-03-03T15:01:53.415Z,61.10
2019-03-03T15:04:24.452Z,61.70
2019-03-03T15:06:55.522Z,62.30
2019-03-03T15:09:27.151Z,63.50
2019-03-03T15:11:58.236Z,63.40
2019-03-03T15:14:29.318Z,62.50
2019-03-03T15:17:00.387Z,61.10
2019-03-03T15:19:31.541Z,61.00
2019-03-03T15:22:02.625Z,60.20
2019-03-03T15:24:33.690Z,61.90
2019-03-03T15:27:04.776Z,62.80
2019-03-03T15:29:35.843Z,62.70
2019-03-03T15:32:06.876Z,62.30
2019-03-03T15:34:37.940Z,61.00
2019-03-03T15:37:10.575Z,62.50
2019-03-03T15:39:41.642Z,61.10
2019-03-03T15:42:12.675Z,60.40
2019-03-03T15:44:44.847Z,59.60
2019-03-03T15:47:15.878Z,58.90
2019-03-03T15:49:46.955Z,59.50
2019-03-03T15:52:18.995Z,59.70
2019-03-03T15:54:50.058Z,58.00
2019-03-03T15:57:23.945Z,57.30
2019-03-03T15:59:55.007Z,58.60
2019-03-03T16:02:26.081Z,58.50
2019-03-03T16:04:57.127Z,57.50
2019-03-03T16:07:28.190Z,58.00
2019-03-03T16:09:59.234Z,58.60
2019-03-03T16:12:30.292Z,59.00
2019-03-03T16:15:01.334Z,59.60
2019-03-03T16:17:35.044Z,60.80
2019-03-03T16:20:10.945Z,61.20
2019-03-03T16:22:42.025Z,60.40
2019-03-03T16:25:17.019Z,60.60
2019-03-03T16:27:48.085Z,60.70
2019-03-03T16:30:23.983Z,61.30
2019-03-03T16:32:55.119Z,61.90
2019-03-03T16:35:26.184Z,62.50
2019-03-03T16:37:57.229Z,62.80
2019-03-03T16:40:38.990Z,63.30
2019-03-03T16:43:01.741Z,63.60
2019-03-03T16:45:32.800Z,63.70
2019-03-03T16:48:03.842Z,63.90
2019-03-03T16:50:34.905Z,64.10
2019-03-03T16:53:06.660Z,64.00
2019-03-03T16:55:37.834Z,64.00
2019-03-03T16:58:08.920Z,64.00
2019-03-03T17:00:40.170Z,65.10
2019-03-03T17:03:11.301Z,65.60
2019-03-03T17:05:42.352Z,65.70
2019-03-03T17:08:13.475Z,65.80
2019-03-03T17:10:44.577Z,66.20
2019-03-03T17:13:15.702Z,67.00
2019-03-03T17:15:46.766Z,67.30
2019-03-03T17:18:17.826Z,66.10
2019-03-03T17:20:48.895Z,67.00
2019-03-03T17:23:19.947Z,67.30
2019-03-03T17:25:51.063Z,67.30
2019-03-03T17:28:22.147Z,67.30
2019-03-03T17:30:53.207Z,68.10
2019-03-03T17:33:24.245Z,69.00
2019-03-03T17:35:55.307Z,69.90
2019-03-03T17:38:26.337Z,70.00
2019-03-03T17:40:57.395Z,69.40
2019-03-03T17:43:28.448Z,70.20
2019-03-03T17:45:59.519Z,70.50
2019-03-03T17:48:30.551Z,70.90
2019-03-03T17:51:03.114Z,70.90
2019-03-03T17:53:34.162Z,71.00
2019-03-03T17:56:05.259Z,71.20
2019-03-03T17:58:36.301Z,72.00
2019-03-03T18:01:07.378Z,72.80
2019-03-03T18:03:38.412Z,72.90
2019-03-03T18:06:09.475Z,72.70
2019-03-03T18:08:40.509Z,72.80
2019-03-03T18:11:11.566Z,72.80
2019-03-03T18:13:42.607Z,73.10
2019-03-03T18:16:13.694Z,73.50
2019-03-03T18:18:44.719Z,74.00
2019-03-03T18:21:15.779Z,74.30
2019-03-03T18:23:47.855Z,74.60
2019-03-03T18:26:18.927Z,74.80
2019-03-03T18:28:50.022Z,74.40
2019-03-03T18:31:21.048Z,74.50
2019-03-03T18:33:52.111Z,74.80
2019-03-03T18:36:23.189Z,75.70
2019-03-03T18:38:54.254Z,76.40
2019-03-03T18:41:25.287Z,77.40
2019-03-03T18:43:56.359Z,77.40
2019-03-03T18:46:27.416Z,82.10
2019-03-03T18:48:59.476Z,81.40
2019-03-03T18:51:30.527Z,79.60
2019-03-03T18:54:01.599Z,80.60
2019-03-03T18:56:32.618Z,80.90
2019-03-03T18:59:03.817Z,81.10
2019-03-03T19:01:34.907Z,81.20
2019-03-03T19:04:06.108Z,81.50
2019-03-03T19:06:37.142Z,81.90
2019-03-03T19:09:11.105Z,82.20
2019-03-03T19:11:42.355Z,82.80
2019-03-03T19:14:13.430Z,85.50
2019-03-03T19:16:44.492Z,86.30
2019-03-03T19:19:15.658Z,88.10
2019-03-03T19:21:46.713Z,90.10
2019-03-03T19:24:18.266Z,90.60
2019-03-03T19:26:49.388Z,90.80
2019-03-03T19:29:20.476Z,90.80
2019-03-03T19:31:51.577Z,91.30
2019-03-03T19:34:22.679Z,92.20
2019-03-03T19:36:53.758Z,93.40
2019-03-03T19:39:24.800Z,94.70
2019-03-03T19:41:55.887Z,95.50
2019-03-03T19:44:26.942Z,96.90
2019-03-03T19:46:58.896Z,97.80
2019-03-03T19:49:29.948Z,98.90
2019-03-03T19:52:01.035Z,99.20
2019-03-03T19:54:32.089Z,99.90
2019-03-03T19:57:03.156Z,99.90
2019-03-03T19:59:34.196Z,99.90
2019-03-03T20:02:05.278Z,99.90
2019-03-03T20:04:36.300Z,99.90
2019-03-03T20:07:07.391Z,99.90
2019-03-03T20:09:39.906Z,99.90
2019-03-03T20:12:11.057Z,99.90
2019-03-03T20:14:42.094Z,99.90
2019-03-03T20:17:14.156Z,99.90
2019-03-03T20:19:45.190Z,99.90
2019-03-03T20:22:16.255Z,99.90
2019-03-03T20:24:47.314Z,99.90
2019-03-03T20:27:18.372Z,99.90
2019-03-03T20:29:49.553Z,99.90
2019-03-03T20:32:20.610Z,99.90
2019-03-03T20:34:51.667Z,99.90
2019-03-03T20:37:22.690Z,99.90
2019-03-03T20:39:53.747Z,99.90
2019-03-03T20:42:26.358Z,99.90
2019-03-03T20:44:57.434Z,99.90
2019-03-03T20:47:28.460Z,99.90
2019-03-03T20:49:59.513Z,99.90
2019-03-03T20:52:30.533Z,99.90
2019-03-03T20:55:01.598Z,99.90
2019-03-03T20:57:32.641Z,99.90
2019-03-03T21:00:09.260Z,99.90
2019-03-03T21:02:40.383Z,99.90
2019-03-03T21:05:11.687Z,99.90
2019-03-03T21:07:50.829Z,99.90
2019-03-03T21:10:27.635Z,99.90
2019-03-03T21:12:58.659Z,99.90
2019-03-03T21:15:29.742Z,99.90
2019-03-03T21:18:00.763Z,99.90
2019-03-03T21:20:31.820Z,99.90
2019-03-03T21:23:02.853Z,99.90
2019-03-03T21:25:33.989Z,99.90
2019-03-03T21:28:05.021Z,99.90
2019-03-03T21:30:36.177Z,99.90
2019-03-03T21:33:07.234Z,99.90
2019-03-03T21:35:38.352Z,99.90
2019-03-03T21:38:09.431Z,99.90
2019-03-03T21:40:40.454Z,99.90
2019-03-03T21:43:12.511Z,99.90
2019-03-03T21:45:43.538Z,99.90
2019-03-03T21:48:14.594Z,99.90
2019-03-03T21:50:45.620Z,99.90
2019-03-03T21:53:16.678Z,99.90
2019-03-03T21:55:47.689Z,99.90
2019-03-03T21:58:18.772Z,99.90
2019-03-03T22:00:49.795Z,99.90
2019-03-03T22:03:20.857Z,99.90
2019-03-03T22:05:51.882Z,99.90
2019-03-03T22:08:22.935Z,99.90
2019-03-03T22:10:53.962Z,99.90
2019-03-03T22:13:25.041Z,99.90
2019-03-03T22:15:56.059Z,99.90
2019-03-03T22:18:27.106Z,99.90
2019-03-03T22:20:58.186Z,99.90
2019-03-03T22:23:29.306Z,99.90
2019-03-03T22:26:00.332Z,99.90
2019-03-03T22:28:31.401Z,99.90
2019-03-03T22:31:02.416Z,99.90
2019-03-03T22:33:33.520Z,99.90
2019-03-03T22:36:04.655Z,99.90
2019-03-03T22:38:35.769Z,99.90
2019-03-03T22:41:06.868Z,99.90
2019-03-03T22:43:37.918Z,99.90
2019-03-03T22:46:09.074Z,99.90
2019-03-03T22:48:40.099Z,99.90
2019-03-03T22:51:11.139Z,99.90
2019-03-03T22:53:42.159Z,99.90
2019-03-03T22:56:13.216Z,99.90
2019-03-03T22:58:44.254Z,99.90
2019-03-03T23:01:19.206Z,99.90
2019-03-03T23:04:24.149Z,99.90
2019-03-03T23:06:59.701Z,99.90
2019-03-03T23:10:06.393Z,99.90
2019-03-03T23:13:02.939Z,99.90
2019-03-03T23:15:54.880Z,99.90
2019-03-03T23:18:53.972Z,99.90
2019-03-03T23:21:35.294Z,99.90
2019-03-03T23:24:13.523Z,99.90
2019-03-03T23:26:44.577Z,99.90
2019-03-03T23:29:15.703Z,99.90
2019-03-03T23:31:46.711Z,99.90
2019-03-03T23:34:19.065Z,99.90
2019-03-03T23:36:50.092Z,99.90
2019-03-03T23:39:21.192Z,99.90
2019-03-03T23:41:52.208Z,99.90
2019-03-03T23:44:23.734Z,99.90
2019-03-03T23:46:55.790Z,99.90
2019-03-03T23:49:26.931Z,99.90
2019-03-03T23:51:57.950Z,99.90
2019-03-03T23:54:29.003Z,99.90
2019-03-03T23:57:00.039Z,99.90
2019-03-03T23:59:31.109Z,99.90
